Ford, Virginia
Current Conditions -  °F | °C
As of 4:15 AM on Sunday 26 Oct 2014 (Local Time) from KBKT Reporting Station
Clear Clear  
Wind Chill: 54°   Ceiling: Unl
Heat Index: 54°   Visibility: 10mi
Dew Point: 47°   Wind: 5mph
Humidity: 78%   Direction: 220°SW
Pressure: 29.75"   Gusts: NA
Location:  37.15°N, 77.75°W
Report Text: KBKT 260815Z AUTO 22004KT 10SM CLR 12/09 A2975 RMK AO1 T01220085
Loading
Personal Weather Stations






























Interactive Weather Map
Tropical Storm Tracking
New forecast layout! Learn more

10-Day Weather Forecast

Advertisements
Track Severe Weather on mobile